sensor_id;sensor_type;location;lat;lon;timestamp;P1;durP1;ratioP1;P2;durP2;ratioP2
79025;SDS011;74892;44.760;37.726;2024-02-28T02:26:05;11.57;;;7.60;;
79025;SDS011;74892;44.760;37.726;2024-02-28T02:27:06;12.85;;;6.40;;
79025;SDS011;74892;44.760;37.726;2024-02-28T02:28:08;22.83;;;7.60;;
79025;SDS011;74892;44.760;37.726;2024-02-28T02:29:10;13.27;;;7.70;;
79025;SDS011;74892;44.760;37.726;2024-02-28T02:30:11;17.75;;;6.97;;
79025;SDS011;74892;44.760;37.726;2024-02-28T02:31:13;15.15;;;7.15;;
79025;SDS011;74892;44.760;37.726;2024-02-28T02:32:15;16.63;;;7.15;;
79025;SDS011;74892;44.760;37.726;2024-02-28T02:33:17;17.33;;;6.50;;
79025;SDS011;74892;44.760;37.726;2024-02-28T02:34:18;17.05;;;7.45;;
79025;SDS011;74892;44.760;37.726;2024-02-28T02:35:20;17.67;;;7.20;;
79025;SDS011;74892;44.760;37.726;2024-02-28T02:36:22;15.63;;;7.65;;
79025;SDS011;74892;44.760;37.726;2024-02-28T02:37:23;16.77;;;6.97;;
79025;SDS011;74892;44.760;37.726;2024-02-28T02:38:25;18.45;;;7.32;;
79025;SDS011;74892;44.760;37.726;2024-02-28T02:39:27;28.85;;;8.85;;
79025;SDS011;74892;44.760;37.726;2024-02-28T02:40:28;16.33;;;7.75;;
79025;SDS011;74892;44.760;37.726;2024-02-28T02:41:30;12.15;;;6.75;;
79025;SDS011;74892;44.760;37.726;2024-02-28T02:42:32;19.23;;;8.55;;
79025;SDS011;74892;44.760;37.726;2024-02-28T02:43:33;26.10;;;8.48;;
79025;SDS011;74892;44.760;37.726;2024-02-28T02:44:35;13.75;;;8.02;;
79025;SDS011;74892;44.760;37.726;2024-02-28T02:45:37;25.08;;;9.82;;
79025;SDS011;74892;44.760;37.726;2024-02-28T02:46:38;18.65;;;7.78;;
79025;SDS011;74892;44.760;37.726;2024-02-28T02:47:40;16.98;;;9.18;;
79025;SDS011;74892;44.760;37.726;2024-02-28T02:48:42;16.05;;;8.10;;
79025;SDS011;74892;44.760;37.726;2024-02-28T02:49:43;17.55;;;8.20;;
79025;SDS011;74892;44.760;37.726;2024-02-28T02:50:45;19.67;;;9.57;;
79025;SDS011;74892;44.760;37.726;2024-02-28T02:51:47;18.20;;;8.23;;
79025;SDS011;74892;44.760;37.726;2024-02-28T02:52:48;22.92;;;8.05;;
79025;SDS011;74892;44.760;37.726;2024-02-28T02:53:50;14.88;;;7.75;;
79025;SDS011;74892;44.760;37.726;2024-02-28T02:54:52;19.00;;;8.48;;
79025;SDS011;74892;44.760;37.726;2024-02-28T02:57:41;24.45;;;8.20;;
79025;SDS011;74892;44.760;37.726;2024-02-28T03:02:06;21.73;;;10.98;;
79025;SDS011;74892;44.760;37.726;2024-02-28T03:03:08;23.27;;;9.43;;
79025;SDS011;74892;44.760;37.726;2024-02-28T03:04:10;21.10;;;10.23;;
79025;SDS011;74892;44.760;37.726;2024-02-28T03:05:11;24.45;;;8.90;;
79025;SDS011;74892;44.760;37.726;2024-02-28T03:06:13;23.13;;;9.40;;
79025;SDS011;74892;44.760;37.726;2024-02-28T03:07:18;22.38;;;9.88;;
79025;SDS011;74892;44.760;37.726;2024-02-28T03:08:20;20.33;;;9.18;;
79025;SDS011;74892;44.760;37.726;2024-02-28T03:09:22;15.95;;;9.15;;
79025;SDS011;74892;44.760;37.726;2024-02-28T03:10:24;20.35;;;9.50;;
79025;SDS011;74892;44.760;37.726;2024-02-28T03:11:28;19.40;;;9.55;;
79025;SDS011;74892;44.760;37.726;2024-02-28T03:12:31;20.25;;;9.18;;
79025;SDS011;74892;44.760;37.726;2024-02-28T03:13:33;18.95;;;8.57;;
79025;SDS011;74892;44.760;37.726;2024-02-28T03:14:35;22.50;;;8.63;;
79025;SDS011;74892;44.760;37.726;2024-02-28T03:15:39;18.77;;;9.25;;
79025;SDS011;74892;44.760;37.726;2024-02-28T03:16:44;16.00;;;8.48;;
79025;SDS011;74892;44.760;37.726;2024-02-28T03:17:46;21.38;;;7.95;;
79025;SDS011;74892;44.760;37.726;2024-02-28T03:18:48;15.00;;;7.85;;
79025;SDS011;74892;44.760;37.726;2024-02-28T03:19:50;15.38;;;7.85;;
79025;SDS011;74892;44.760;37.726;2024-02-28T03:20:52;18.15;;;6.72;;
79025;SDS011;74892;44.760;37.726;2024-02-28T03:21:54;17.20;;;8.82;;
79025;SDS011;74892;44.760;37.726;2024-02-28T03:22:56;13.90;;;7.32;;
79025;SDS011;74892;44.760;37.726;2024-02-28T03:23:57;21.27;;;8.20;;
79025;SDS011;74892;44.760;37.726;2024-02-28T03:24:59;21.75;;;7.30;;
79025;SDS011;74892;44.760;37.726;2024-02-28T03:26:01;15.50;;;8.00;;
79025;SDS011;74892;44.760;37.726;2024-02-28T03:56:38;13.02;;;6.85;;
79025;SDS011;74892;44.760;37.726;2024-02-28T04:00:24;15.15;;;6.50;;
79025;SDS011;74892;44.760;37.726;2024-02-28T04:01:27;14.32;;;6.65;;
79025;SDS011;74892;44.760;37.726;2024-02-28T04:02:28;17.10;;;7.07;;
79025;SDS011;74892;44.760;37.726;2024-02-28T04:03:30;13.25;;;6.88;;
79025;SDS011;74892;44.760;37.726;2024-02-28T04:04:32;18.63;;;6.47;;
79025;SDS011;74892;44.760;37.726;2024-02-28T04:05:35;16.95;;;7.13;;
79025;SDS011;74892;44.760;37.726;2024-02-28T04:06:36;15.45;;;7.15;;
79025;SDS011;74892;44.760;37.726;2024-02-28T04:07:38;15.52;;;6.60;;
79025;SDS011;74892;44.760;37.726;2024-02-28T04:08:40;12.27;;;5.90;;
79025;SDS011;74892;44.760;37.726;2024-02-28T04:09:43;11.80;;;7.13;;
79025;SDS011;74892;44.760;37.726;2024-02-28T04:10:44;11.68;;;6.38;;
79025;SDS011;74892;44.760;37.726;2024-02-28T04:11:46;12.68;;;6.47;;
79025;SDS011;74892;44.760;37.726;2024-02-28T04:12:48;12.10;;;6.30;;
79025;SDS011;74892;44.760;37.726;2024-02-28T04:13:50;13.73;;;6.32;;
79025;SDS011;74892;44.760;37.726;2024-02-28T04:14:52;12.27;;;5.75;;
79025;SDS011;74892;44.760;37.726;2024-02-28T04:15:54;13.90;;;6.45;;
79025;SDS011;74892;44.760;37.726;2024-02-28T04:16:55;14.32;;;7.07;;
79025;SDS011;74892;44.760;37.726;2024-02-28T04:17:57;17.40;;;7.35;;
79025;SDS011;74892;44.760;37.726;2024-02-28T04:18:59;15.88;;;7.05;;
79025;SDS011;74892;44.760;37.726;2024-02-28T04:20:00;14.23;;;6.57;;
79025;SDS011;74892;44.760;37.726;2024-02-28T04:21:05;12.50;;;7.15;;
79025;SDS011;74892;44.760;37.726;2024-02-28T04:22:07;16.55;;;7.43;;
79025;SDS011;74892;44.760;37.726;2024-02-28T04:23:08;12.50;;;7.03;;
79025;SDS011;74892;44.760;37.726;2024-02-28T04:24:10;16.50;;;7.57;;
79025;SDS011;74892;44.760;37.726;2024-02-28T04:25:11;20.17;;;8.48;;
79025;SDS011;74892;44.760;37.726;2024-02-28T04:26:13;14.88;;;7.90;;
79025;SDS011;74892;44.760;37.726;2024-02-28T04:27:15;27.27;;;8.95;;
79025;SDS011;74892;44.760;37.726;2024-02-28T04:28:16;21.98;;;7.25;;
79025;SDS011;74892;44.760;37.726;2024-02-28T04:29:18;19.75;;;7.35;;
79025;SDS011;74892;44.760;37.726;2024-02-28T04:30:20;23.48;;;7.20;;
79025;SDS011;74892;44.760;37.726;2024-02-28T04:31:21;27.50;;;7.55;;
79025;SDS011;74892;44.760;37.726;2024-02-28T04:32:23;28.20;;;8.75;;
79025;SDS011;74892;44.760;37.726;2024-02-28T04:33:25;18.98;;;7.18;;
79025;SDS011;74892;44.760;37.726;2024-02-28T04:34:26;34.70;;;8.95;;
79025;SDS011;74892;44.760;37.726;2024-02-28T04:35:28;23.15;;;8.18;;
79025;SDS011;74892;44.760;37.726;2024-02-28T04:36:30;21.38;;;8.80;;
79025;SDS011;74892;44.760;37.726;2024-02-28T13:12:29;10.82;;;6.28;;
79025;SDS011;74892;44.760;37.726;2024-02-28T13:13:31;13.40;;;6.47;;
79025;SDS011;74892;44.760;37.726;2024-02-28T13:14:33;11.43;;;6.68;;
79025;SDS011;74892;44.760;37.726;2024-02-28T13:15:35;14.13;;;6.97;;
79025;SDS011;74892;44.760;37.726;2024-02-28T13:16:36;16.58;;;7.15;;
79025;SDS011;74892;44.760;37.726;2024-02-28T13:17:38;13.27;;;6.53;;
79025;SDS011;74892;44.760;37.726;2024-02-28T13:18:42;12.20;;;6.65;;
79025;SDS011;74892;44.760;37.726;2024-02-28T13:19:44;11.57;;;6.63;;
79025;SDS011;74892;44.760;37.726;2024-02-28T13:20:46;15.30;;;6.75;;
79025;SDS011;74892;44.760;37.726;2024-02-28T13:21:47;18.98;;;6.72;;
79025;SDS011;74892;44.760;37.726;2024-02-28T13:22:49;13.20;;;6.65;;
79025;SDS011;74892;44.760;37.726;2024-02-28T13:23:52;11.55;;;6.30;;
79025;SDS011;74892;44.760;37.726;2024-02-28T13:24:55;11.40;;;6.63;;
79025;SDS011;74892;44.760;37.726;2024-02-28T13:25:57;13.60;;;6.15;;
79025;SDS011;74892;44.760;37.726;2024-02-28T13:26:58;14.35;;;6.60;;
79025;SDS011;74892;44.760;37.726;2024-02-28T13:28:00;11.88;;;6.00;;
79025;SDS011;74892;44.760;37.726;2024-02-28T13:29:02;11.95;;;6.45;;
79025;SDS011;74892;44.760;37.726;2024-02-28T13:30:04;13.85;;;5.93;;
79025;SDS011;74892;44.760;37.726;2024-02-28T13:31:06;13.52;;;6.47;;
79025;SDS011;74892;44.760;37.726;2024-02-28T13:32:10;16.23;;;8.30;;
79025;SDS011;74892;44.760;37.726;2024-02-28T13:33:11;14.18;;;7.05;;
79025;SDS011;74892;44.760;37.726;2024-02-28T13:34:13;10.80;;;6.53;;
79025;SDS011;74892;44.760;37.726;2024-02-28T13:35:15;12.25;;;6.63;;
79025;SDS011;74892;44.760;37.726;2024-02-28T13:36:17;13.50;;;7.05;;
79025;SDS011;74892;44.760;37.726;2024-02-28T13:37:21;9.82;;;6.78;;
79025;SDS011;74892;44.760;37.726;2024-02-28T13:38:22;14.65;;;6.90;;
79025;SDS011;74892;44.760;37.726;2024-02-28T13:39:24;17.00;;;7.30;;
79025;SDS011;74892;44.760;37.726;2024-02-28T13:40:27;13.45;;;7.35;;
79025;SDS011;74892;44.760;37.726;2024-02-28T13:41:29;10.52;;;5.97;;
79025;SDS011;74892;44.760;37.726;2024-02-28T13:42:31;11.50;;;6.60;;
79025;SDS011;74892;44.760;37.726;2024-02-28T13:43:33;11.75;;;6.63;;
79025;SDS011;74892;44.760;37.726;2024-02-28T13:44:35;17.25;;;7.90;;
79025;SDS011;74892;44.760;37.726;2024-02-28T13:45:38;16.58;;;6.93;;
79025;SDS011;74892;44.760;37.726;2024-02-28T13:46:44;17.45;;;7.43;;
79025;SDS011;74892;44.760;37.726;2024-02-28T13:47:46;12.40;;;6.75;;
79025;SDS011;74892;44.760;37.726;2024-02-28T13:48:48;12.20;;;7.95;;
79025;SDS011;74892;44.760;37.726;2024-02-28T13:49:49;14.70;;;7.45;;
79025;SDS011;74892;44.760;37.726;2024-02-28T13:50:51;17.13;;;7.40;;
79025;SDS011;74892;44.760;37.726;2024-02-28T13:51:53;14.73;;;7.47;;
79025;SDS011;74892;44.760;37.726;2024-02-28T13:52:55;12.32;;;6.68;;
79025;SDS011;74892;44.760;37.726;2024-02-28T13:53:57;12.45;;;7.00;;
79025;SDS011;74892;44.760;37.726;2024-02-28T13:54:58;15.02;;;7.75;;
79025;SDS011;74892;44.760;37.726;2024-02-28T13:56:00;15.75;;;8.00;;
79025;SDS011;74892;44.760;37.726;2024-02-28T13:57:02;11.40;;;6.90;;
79025;SDS011;74892;44.760;37.726;2024-02-28T13:58:06;15.63;;;9.07;;
79025;SDS011;74892;44.760;37.726;2024-02-28T13:59:09;18.40;;;9.10;;
79025;SDS011;74892;44.760;37.726;2024-02-28T14:00:11;14.55;;;7.55;;
79025;SDS011;74892;44.760;37.726;2024-02-28T14:01:14;13.15;;;7.35;;
79025;SDS011;74892;44.760;37.726;2024-02-28T14:02:16;16.23;;;6.93;;
79025;SDS011;74892;44.760;37.726;2024-02-28T14:03:17;13.15;;;6.97;;
79025;SDS011;74892;44.760;37.726;2024-02-28T14:04:19;14.55;;;6.72;;
79025;SDS011;74892;44.760;37.726;2024-02-28T14:05:21;11.52;;;7.18;;
79025;SDS011;74892;44.760;37.726;2024-02-28T14:06:23;11.90;;;6.65;;
79025;SDS011;74892;44.760;37.726;2024-02-28T14:07:24;13.80;;;7.03;;
79025;SDS011;74892;44.760;37.726;2024-02-28T14:08:27;15.02;;;6.78;;
79025;SDS011;74892;44.760;37.726;2024-02-28T14:09:29;9.85;;;6.88;;
79025;SDS011;74892;44.760;37.726;2024-02-28T14:10:31;16.23;;;7.47;;
79025;SDS011;74892;44.760;37.726;2024-02-28T14:11:33;12.05;;;6.55;;
79025;SDS011;74892;44.760;37.726;2024-02-28T14:12:35;14.15;;;7.45;;
79025;SDS011;74892;44.760;37.726;2024-02-28T14:13:37;13.40;;;7.32;;
79025;SDS011;74892;44.760;37.726;2024-02-28T14:14:40;12.00;;;7.40;;
79025;SDS011;74892;44.760;37.726;2024-02-28T14:15:42;14.32;;;7.53;;
79025;SDS011;74892;44.760;37.726;2024-02-28T14:16:43;17.10;;;7.88;;
79025;SDS011;74892;44.760;37.726;2024-02-28T14:17:45;15.05;;;8.57;;
79025;SDS011;74892;44.760;37.726;2024-02-28T14:18:47;12.65;;;7.32;;
79025;SDS011;74892;44.760;37.726;2024-02-28T14:19:49;13.90;;;6.88;;
79025;SDS011;74892;44.760;37.726;2024-02-28T14:20:50;12.50;;;6.75;;
79025;SDS011;74892;44.760;37.726;2024-02-28T14:21:52;11.27;;;7.57;;
79025;SDS011;74892;44.760;37.726;2024-02-28T14:22:54;15.48;;;7.65;;
79025;SDS011;74892;44.760;37.726;2024-02-28T14:23:57;14.80;;;7.22;;
79025;SDS011;74892;44.760;37.726;2024-02-28T14:24:59;13.50;;;7.28;;
79025;SDS011;74892;44.760;37.726;2024-02-28T14:26:01;9.82;;;6.72;;
79025;SDS011;74892;44.760;37.726;2024-02-28T14:27:03;14.27;;;6.72;;
79025;SDS011;74892;44.760;37.726;2024-02-28T14:28:05;14.02;;;7.32;;
79025;SDS011;74892;44.760;37.726;2024-02-28T14:29:07;16.42;;;8.32;;
79025;SDS011;74892;44.760;37.726;2024-02-28T14:30:09;13.70;;;7.50;;
79025;SDS011;74892;44.760;37.726;2024-02-28T14:31:11;12.57;;;8.48;;
79025;SDS011;74892;44.760;37.726;2024-02-28T14:32:14;15.70;;;9.00;;
79025;SDS011;74892;44.760;37.726;2024-02-28T14:34:18;16.77;;;7.95;;
79025;SDS011;74892;44.760;37.726;2024-02-28T14:35:19;13.13;;;7.03;;
79025;SDS011;74892;44.760;37.726;2024-02-28T14:36:21;13.70;;;7.80;;
79025;SDS011;74892;44.760;37.726;2024-02-28T14:37:23;13.85;;;7.70;;
79025;SDS011;74892;44.760;37.726;2024-02-28T14:38:24;17.02;;;9.90;;
79025;SDS011;74892;44.760;37.726;2024-02-28T14:39:26;24.98;;;11.30;;
79025;SDS011;74892;44.760;37.726;2024-02-28T14:40:28;17.23;;;9.98;;
79025;SDS011;74892;44.760;37.726;2024-02-28T14:41:29;19.30;;;10.77;;
79025;SDS011;74892;44.760;37.726;2024-02-28T14:42:32;16.23;;;9.82;;
79025;SDS011;74892;44.760;37.726;2024-02-28T14:43:34;14.63;;;7.63;;
79025;SDS011;74892;44.760;37.726;2024-02-28T14:44:36;12.68;;;7.47;;
79025;SDS011;74892;44.760;37.726;2024-02-28T14:45:37;12.85;;;7.40;;
79025;SDS011;74892;44.760;37.726;2024-02-28T14:46:39;13.07;;;7.45;;
79025;SDS011;74892;44.760;37.726;2024-02-28T14:47:42;18.38;;;7.63;;
79025;SDS011;74892;44.760;37.726;2024-02-28T14:48:45;17.45;;;9.13;;
79025;SDS011;74892;44.760;37.726;2024-02-28T14:49:52;20.20;;;13.18;;
79025;SDS011;74892;44.760;37.726;2024-02-28T14:50:53;22.95;;;13.70;;
79025;SDS011;74892;44.760;37.726;2024-02-28T14:51:55;15.80;;;9.85;;
79025;SDS011;74892;44.760;37.726;2024-02-28T14:52:57;17.55;;;10.10;;
79025;SDS011;74892;44.760;37.726;2024-02-28T14:53:59;25.48;;;9.50;;
79025;SDS011;74892;44.760;37.726;2024-02-28T14:55:01;24.52;;;9.95;;
79025;SDS011;74892;44.760;37.726;2024-02-28T14:56:03;19.55;;;9.52;;
79025;SDS011;74892;44.760;37.726;2024-02-28T14:57:06;23.23;;;10.82;;
79025;SDS011;74892;44.760;37.726;2024-02-28T14:58:07;24.65;;;9.85;;
79025;SDS011;74892;44.760;37.726;2024-02-28T14:59:09;27.05;;;10.15;;
79025;SDS011;74892;44.760;37.726;2024-02-28T15:00:11;22.83;;;10.20;;
79025;SDS011;74892;44.760;37.726;2024-02-28T15:01:16;21.05;;;10.10;;
79025;SDS011;74892;44.760;37.726;2024-02-28T15:02:18;17.13;;;8.68;;
79025;SDS011;74892;44.760;37.726;2024-02-28T15:03:20;20.50;;;9.45;;
79025;SDS011;74892;44.760;37.726;2024-02-28T15:04:22;20.45;;;8.90;;
79025;SDS011;74892;44.760;37.726;2024-02-28T15:05:24;16.05;;;9.30;;
79025;SDS011;74892;44.760;37.726;2024-02-28T15:06:25;24.45;;;10.68;;
79025;SDS011;74892;44.760;37.726;2024-02-28T15:07:27;26.48;;;9.73;;
79025;SDS011;74892;44.760;37.726;2024-02-28T15:08:29;27.15;;;11.00;;
79025;SDS011;74892;44.760;37.726;2024-02-28T15:09:31;36.08;;;10.05;;
79025;SDS011;74892;44.760;37.726;2024-02-28T15:10:34;23.88;;;10.88;;
79025;SDS011;74892;44.760;37.726;2024-02-28T15:11:36;28.67;;;10.38;;
79025;SDS011;74892;44.760;37.726;2024-02-28T15:12:38;24.35;;;9.93;;
79025;SDS011;74892;44.760;37.726;2024-02-28T15:13:42;26.65;;;10.25;;
79025;SDS011;74892;44.760;37.726;2024-02-28T15:14:43;18.15;;;10.50;;
79025;SDS011;74892;44.760;37.726;2024-02-28T15:15:46;23.63;;;10.00;;
79025;SDS011;74892;44.760;37.726;2024-02-28T15:16:47;38.50;;;12.48;;
79025;SDS011;74892;44.760;37.726;2024-02-28T15:17:49;33.05;;;11.18;;
79025;SDS011;74892;44.760;37.726;2024-02-28T15:18:51;25.33;;;10.25;;
79025;SDS011;74892;44.760;37.726;2024-02-28T15:19:54;18.45;;;9.65;;
79025;SDS011;74892;44.760;37.726;2024-02-28T15:20:56;18.88;;;10.20;;
79025;SDS011;74892;44.760;37.726;2024-02-28T15:21:58;18.63;;;10.00;;
79025;SDS011;74892;44.760;37.726;2024-02-28T15:23:00;19.17;;;10.02;;
79025;SDS011;74892;44.760;37.726;2024-02-28T15:24:02;19.77;;;9.60;;
79025;SDS011;74892;44.760;37.726;2024-02-28T15:25:04;18.10;;;10.00;;
79025;SDS011;74892;44.760;37.726;2024-02-28T15:26:08;22.85;;;10.25;;
79025;SDS011;74892;44.760;37.726;2024-02-28T15:27:10;24.15;;;10.52;;
79025;SDS011;74892;44.760;37.726;2024-02-28T15:28:12;24.17;;;10.35;;
79025;SDS011;74892;44.760;37.726;2024-02-28T15:29:14;17.85;;;10.45;;
79025;SDS011;74892;44.760;37.726;2024-02-28T15:30:15;15.50;;;10.18;;
79025;SDS011;74892;44.760;37.726;2024-02-28T15:31:20;23.27;;;10.70;;
79025;SDS011;74892;44.760;37.726;2024-02-28T15:32:22;18.55;;;10.13;;
79025;SDS011;74892;44.760;37.726;2024-02-28T15:33:24;23.50;;;9.88;;
79025;SDS011;74892;44.760;37.726;2024-02-28T15:34:25;17.75;;;9.93;;
79025;SDS011;74892;44.760;37.726;2024-02-28T15:35:28;20.83;;;9.80;;
79025;SDS011;74892;44.760;37.726;2024-02-28T15:36:30;16.08;;;9.68;;
79025;SDS011;74892;44.760;37.726;2024-02-28T15:37:32;19.42;;;10.07;;
79025;SDS011;74892;44.760;37.726;2024-02-28T15:38:34;15.38;;;9.63;;
79025;SDS011;74892;44.760;37.726;2024-02-28T15:39:36;18.30;;;9.70;;
79025;SDS011;74892;44.760;37.726;2024-02-28T15:40:38;15.63;;;10.18;;
79025;SDS011;74892;44.760;37.726;2024-02-28T15:41:40;18.45;;;9.90;;
79025;SDS011;74892;44.760;37.726;2024-02-28T15:42:42;19.38;;;12.15;;
79025;SDS011;74892;44.760;37.726;2024-02-28T15:43:44;16.55;;;10.57;;
79025;SDS011;74892;44.760;37.726;2024-02-28T15:44:46;22.15;;;11.13;;
79025;SDS011;74892;44.760;37.726;2024-02-28T15:45:47;18.20;;;11.57;;
79025;SDS011;74892;44.760;37.726;2024-02-28T15:46:50;24.17;;;10.55;;
79025;SDS011;74892;44.760;37.726;2024-02-28T15:47:52;29.08;;;11.80;;
79025;SDS011;74892;44.760;37.726;2024-02-28T15:48:53;27.42;;;11.35;;
79025;SDS011;74892;44.760;37.726;2024-02-28T15:49:55;23.08;;;11.48;;
79025;SDS011;74892;44.760;37.726;2024-02-28T15:50:57;27.02;;;11.43;;
79025;SDS011;74892;44.760;37.726;2024-02-28T15:51:59;36.28;;;12.02;;
79025;SDS011;74892;44.760;37.726;2024-02-28T15:53:00;19.60;;;10.82;;
79025;SDS011;74892;44.760;37.726;2024-02-28T15:54:03;20.17;;;11.25;;
79025;SDS011;74892;44.760;37.726;2024-02-28T15:55:05;23.38;;;11.65;;
79025;SDS011;74892;44.760;37.726;2024-02-28T15:56:07;20.40;;;11.45;;
79025;SDS011;74892;44.760;37.726;2024-02-28T15:57:08;17.98;;;12.15;;
79025;SDS011;74892;44.760;37.726;2024-02-28T15:58:10;22.13;;;13.23;;
79025;SDS011;74892;44.760;37.726;2024-02-28T15:59:12;21.58;;;13.85;;
79025;SDS011;74892;44.760;37.726;2024-02-28T16:00:14;18.95;;;11.68;;
79025;SDS011;74892;44.760;37.726;2024-02-28T16:01:16;20.25;;;12.80;;
79025;SDS011;74892;44.760;37.726;2024-02-28T16:02:18;25.23;;;12.45;;
79025;SDS011;74892;44.760;37.726;2024-02-28T16:03:20;24.80;;;13.93;;
79025;SDS011;74892;44.760;37.726;2024-02-28T16:04:21;19.08;;;11.98;;
79025;SDS011;74892;44.760;37.726;2024-02-28T16:05:23;21.25;;;12.68;;
79025;SDS011;74892;44.760;37.726;2024-02-28T16:06:25;21.88;;;12.25;;
79025;SDS011;74892;44.760;37.726;2024-02-28T16:07:27;32.38;;;12.63;;
79025;SDS011;74892;44.760;37.726;2024-02-28T16:08:29;29.80;;;13.90;;
79025;SDS011;74892;44.760;37.726;2024-02-28T16:09:30;24.60;;;13.05;;
79025;SDS011;74892;44.760;37.726;2024-02-28T16:10:32;23.33;;;13.02;;
79025;SDS011;74892;44.760;37.726;2024-02-28T16:11:34;23.33;;;11.85;;
79025;SDS011;74892;44.760;37.726;2024-02-28T16:12:36;22.60;;;12.05;;
79025;SDS011;74892;44.760;37.726;2024-02-28T16:13:39;20.20;;;11.65;;
79025;SDS011;74892;44.760;37.726;2024-02-28T16:14:40;25.92;;;12.93;;
79025;SDS011;74892;44.760;37.726;2024-02-28T16:15:43;23.75;;;11.77;;
79025;SDS011;74892;44.760;37.726;2024-02-28T16:16:45;21.00;;;12.52;;
79025;SDS011;74892;44.760;37.726;2024-02-28T16:17:46;25.60;;;13.10;;
79025;SDS011;74892;44.760;37.726;2024-02-28T16:18:48;23.38;;;13.95;;
79025;SDS011;74892;44.760;37.726;2024-02-28T16:19:50;23.13;;;12.75;;
79025;SDS011;74892;44.760;37.726;2024-02-28T16:20:52;23.48;;;13.77;;
79025;SDS011;74892;44.760;37.726;2024-02-28T16:21:53;20.20;;;12.77;;
79025;SDS011;74892;44.760;37.726;2024-02-28T16:22:55;21.52;;;11.88;;
79025;SDS011;74892;44.760;37.726;2024-02-28T16:23:57;19.02;;;12.27;;
79025;SDS011;74892;44.760;37.726;2024-02-28T16:25:00;24.13;;;12.32;;
79025;SDS011;74892;44.760;37.726;2024-02-28T16:26:02;27.13;;;13.93;;
79025;SDS011;74892;44.760;37.726;2024-02-28T16:27:04;25.50;;;13.15;;
79025;SDS011;74892;44.760;37.726;2024-02-28T16:28:06;21.42;;;12.27;;
79025;SDS011;74892;44.760;37.726;2024-02-28T16:29:08;34.90;;;14.27;;
79025;SDS011;74892;44.760;37.726;2024-02-28T16:30:10;30.92;;;15.30;;
79025;SDS011;74892;44.760;37.726;2024-02-28T16:31:12;37.78;;;14.57;;
79025;SDS011;74892;44.760;37.726;2024-02-28T16:32:13;29.23;;;14.80;;
79025;SDS011;74892;44.760;37.726;2024-02-28T16:33:15;50.10;;;17.70;;
79025;SDS011;74892;44.760;37.726;2024-02-28T16:34:18;45.35;;;16.98;;
79025;SDS011;74892;44.760;37.726;2024-02-28T16:35:19;45.17;;;15.38;;
79025;SDS011;74892;44.760;37.726;2024-02-28T16:36:21;28.17;;;13.45;;
79025;SDS011;74892;44.760;37.726;2024-02-28T16:37:23;36.28;;;15.05;;
79025;SDS011;74892;44.760;37.726;2024-02-28T16:38:25;31.35;;;13.88;;
79025;SDS011;74892;44.760;37.726;2024-02-28T16:39:27;30.00;;;14.80;;
79025;SDS011;74892;44.760;37.726;2024-02-28T16:40:29;30.58;;;14.10;;
79025;SDS011;74892;44.760;37.726;2024-02-28T16:41:31;23.75;;;13.88;;
79025;SDS011;74892;44.760;37.726;2024-02-28T16:42:32;34.22;;;13.85;;
79025;SDS011;74892;44.760;37.726;2024-02-28T16:43:34;25.85;;;13.75;;
79025;SDS011;74892;44.760;37.726;2024-02-28T16:44:36;27.80;;;14.23;;
79025;SDS011;74892;44.760;37.726;2024-02-28T16:45:37;25.50;;;12.77;;
79025;SDS011;74892;44.760;37.726;2024-02-28T16:46:39;22.35;;;14.32;;
79025;SDS011;74892;44.760;37.726;2024-02-28T16:47:41;26.08;;;13.25;;
79025;SDS011;74892;44.760;37.726;2024-02-28T16:48:43;29.17;;;15.27;;
79025;SDS011;74892;44.760;37.726;2024-02-28T16:49:45;32.72;;;16.05;;
79025;SDS011;74892;44.760;37.726;2024-02-28T16:50:46;38.03;;;18.40;;
79025;SDS011;74892;44.760;37.726;2024-02-28T16:51:48;35.75;;;18.08;;
79025;SDS011;74892;44.760;37.726;2024-02-28T16:52:50;31.70;;;16.10;;
79025;SDS011;74892;44.760;37.726;2024-02-28T16:53:52;38.28;;;16.55;;
79025;SDS011;74892;44.760;37.726;2024-02-28T16:54:53;31.25;;;16.80;;
79025;SDS011;74892;44.760;37.726;2024-02-28T16:55:57;34.53;;;16.42;;
79025;SDS011;74892;44.760;37.726;2024-02-28T16:57:02;31.95;;;15.25;;
79025;SDS011;74892;44.760;37.726;2024-02-28T16:58:03;38.28;;;16.75;;
79025;SDS011;74892;44.760;37.726;2024-02-28T16:59:06;32.63;;;16.70;;
79025;SDS011;74892;44.760;37.726;2024-02-28T17:00:08;32.60;;;15.85;;
79025;SDS011;74892;44.760;37.726;2024-02-28T17:01:10;36.65;;;16.48;;
79025;SDS011;74892;44.760;37.726;2024-02-28T17:02:14;39.85;;;18.00;;
79025;SDS011;74892;44.760;37.726;2024-02-28T17:03:15;35.22;;;16.88;;
79025;SDS011;74892;44.760;37.726;2024-02-28T17:04:20;34.42;;;17.92;;
79025;SDS011;74892;44.760;37.726;2024-02-28T17:05:22;30.48;;;16.85;;
79025;SDS011;74892;44.760;37.726;2024-02-28T17:06:23;37.38;;;18.20;;
79025;SDS011;74892;44.760;37.726;2024-02-28T17:07:25;42.10;;;17.33;;
79025;SDS011;74892;44.760;37.726;2024-02-28T17:08:27;36.63;;;18.35;;
79025;SDS011;74892;44.760;37.726;2024-02-28T17:09:29;38.67;;;21.00;;
79025;SDS011;74892;44.760;37.726;2024-02-28T17:10:30;35.95;;;20.67;;
79025;SDS011;74892;44.760;37.726;2024-02-28T17:11:34;43.35;;;21.48;;
79025;SDS011;74892;44.760;37.726;2024-02-28T17:12:36;40.20;;;22.33;;
79025;SDS011;74892;44.760;37.726;2024-02-28T17:13:38;43.88;;;19.85;;
79025;SDS011;74892;44.760;37.726;2024-02-28T17:14:40;35.90;;;19.90;;
79025;SDS011;74892;44.760;37.726;2024-02-28T17:15:42;38.20;;;21.48;;
79025;SDS011;74892;44.760;37.726;2024-02-28T17:16:44;37.10;;;22.33;;
79025;SDS011;74892;44.760;37.726;2024-02-28T17:17:46;40.08;;;20.08;;
79025;SDS011;74892;44.760;37.726;2024-02-28T17:18:48;44.20;;;20.90;;
79025;SDS011;74892;44.760;37.726;2024-02-28T17:19:50;42.15;;;20.70;;
79025;SDS011;74892;44.760;37.726;2024-02-28T17:20:53;41.58;;;21.73;;
79025;SDS011;74892;44.760;37.726;2024-02-28T17:21:54;41.65;;;21.55;;
79025;SDS011;74892;44.760;37.726;2024-02-28T17:22:56;41.28;;;21.13;;
79025;SDS011;74892;44.760;37.726;2024-02-28T17:23:58;45.65;;;20.73;;
79025;SDS011;74892;44.760;37.726;2024-02-28T17:25:00;53.28;;;22.63;;
79025;SDS011;74892;44.760;37.726;2024-02-28T17:26:02;44.17;;;20.27;;
79025;SDS011;74892;44.760;37.726;2024-02-28T17:27:04;51.53;;;21.95;;
79025;SDS011;74892;44.760;37.726;2024-02-28T17:28:05;48.35;;;21.15;;
79025;SDS011;74892;44.760;37.726;2024-02-28T17:29:07;43.17;;;20.52;;
79025;SDS011;74892;44.760;37.726;2024-02-28T17:30:11;37.30;;;20.02;;
79025;SDS011;74892;44.760;37.726;2024-02-28T17:31:13;38.65;;;18.02;;
79025;SDS011;74892;44.760;37.726;2024-02-28T17:32:15;38.10;;;19.15;;
79025;SDS011;74892;44.760;37.726;2024-02-28T17:33:17;45.80;;;20.70;;
79025;SDS011;74892;44.760;37.726;2024-02-28T20:02:02;61.78;;;23.10;;
79025;SDS011;74892;44.760;37.726;2024-02-28T20:03:04;59.03;;;22.88;;
79025;SDS011;74892;44.760;37.726;2024-02-28T20:04:06;54.92;;;22.15;;
79025;SDS011;74892;44.760;37.726;2024-02-28T20:05:09;54.10;;;22.17;;
79025;SDS011;74892;44.760;37.726;2024-02-28T20:06:11;50.80;;;23.38;;
79025;SDS011;74892;44.760;37.726;2024-02-28T20:07:13;51.75;;;23.17;;